Morton, Minnesota
Current Conditions -  °F | °C
As of 10:53 AM on Monday 22 Dec 2014 (Local Time) from KRWF Reporting Station
Light Rain Light Rain  
Wind Chill: 30°   Ceiling: 500
Heat Index: 39°   Visibility: 3mi
Dew Point: 37°   Wind: 16mph
Humidity: 93%   Direction: 140°SE
Pressure: 29.53"   Gusts: NA
Location:  44.55°N, 94.98°W
Report Text: KRWF 221653Z AUTO 14014KT 3SM -RA BR OVC005 04/03 A2953 RMK AO2 SLP008 P0002 T00390028
Loading
Personal Weather Stations






























Interactive Weather Map New forecast layout! Learn more

10-Day Weather Forecast

Advertisements
Track Severe Weather on mobile